Terminal Aerodrome Forecast
Issued by NWS Mt. Holly, NJ

Home | Current Version | Previous Version | Text Only | Print | Product List | Glossary On
Versions: 1 2 3 4 5 6 7 8 9 10 11 12 13 14
000
FTUS41 KPHI 312300
TAFACY
TAF
KACY 312320Z 0100/0124 19008KT P6SM FEW070 BKN300
     FM010600 20004KT P6SM SCT060 BKN150
     FM011300 17007KT P6SM SCT045 BKN120=

USA.gov is the U.S. government's official web portal to all federal, state and local government web resources and services.